Time;durP1;ratioP1;P1;durP2;ratioP2;P2;SDS_P1;SDS_P2;PMS_P1;PMS_P2;Temp;Humidity;BMP_temperature;BMP_pressure;BME280_temperature;BME280_humidity;BME280_pressure;Samples;Min_cycle;Max_cycle;Signal;HPM_P1;HPM_P2
2021/07/26 00:00:46;;;;;;;15.88;14.27;;;18.30;99.90;;;;;;4969268;28;20777;-82
2021/07/26 00:03:14;;;;;;;15.15;13.75;;;18.30;99.90;;;;;;4969559;28;20239;-79
2021/07/26 00:05:41;;;;;;;12.65;11.45;;;18.30;99.90;;;;;;4968623;28;20577;-79
2021/07/26 00:08:08;;;;;;;12.18;10.85;;;18.30;99.90;;;;;;4969202;28;20220;-78
2021/07/26 00:10:35;;;;;;;11.68;10.68;;;18.20;99.90;;;;;;4969132;28;20212;-78
2021/07/26 00:13:02;;;;;;;14.25;12.85;;;18.20;99.90;;;;;;4968866;28;20239;-79
2021/07/26 00:15:30;;;;;;;11.45;10.35;;;18.20;99.90;;;;;;4966657;28;20606;-80
2021/07/26 00:17:56;;;;;;;11.75;10.75;;;18.20;99.90;;;;;;4966809;28;20664;-79
2021/07/26 00:20:25;;;;;;;12.50;11.32;;;18.20;99.90;;;;;;4966696;28;20212;-77
2021/07/26 00:22:52;;;;;;;10.77;9.68;;;18.10;99.90;;;;;;4967257;28;20197;-80
2021/07/26 00:25:19;;;;;;;17.58;15.85;;;18.10;99.90;;;;;;4966374;28;20256;-79
2021/07/26 00:27:46;;;;;;;14.85;13.48;;;18.10;99.90;;;;;;4979240;28;20586;-78
2021/07/26 00:30:13;;;;;;;15.50;13.90;;;18.10;99.90;;;;;;4976255;28;21034;-79
2021/07/26 00:32:40;;;;;;;15.27;13.85;;;18.10;99.90;;;;;;4971081;28;20204;-79
2021/07/26 00:35:07;;;;;;;14.63;13.23;;;18.10;99.90;;;;;;4976345;28;20224;-80
2021/07/26 00:37:35;;;;;;;12.90;11.73;;;18.10;99.90;;;;;;4988148;28;20200;-79
2021/07/26 00:40:07;;;;;;;15.88;14.27;;;18.10;99.90;;;;;;4988057;28;20196;-83
2021/07/26 00:42:35;;;;;;;16.77;15.13;;;18.10;99.90;;;;;;4978793;28;20295;-84
2021/07/26 00:45:02;;;;;;;16.60;15.00;;;18.10;99.90;;;;;;4968312;28;20302;-78
2021/07/26 00:47:29;;;;;;;17.55;15.85;;;18.10;99.90;;;;;;4967403;28;20204;-79
2021/07/26 00:49:56;;;;;;;16.20;13.98;;;18.00;99.90;;;;;;4968627;28;20208;-79
2021/07/26 00:52:24;;;;;;;13.68;12.45;;;18.00;99.90;;;;;;4968280;28;20205;-82
2021/07/26 00:54:53;;;;;;;15.00;13.60;;;18.00;99.90;;;;;;4967017;28;20275;-79
2021/07/26 00:57:22;;;;;;;16.27;14.68;;;18.00;99.90;;;;;;4967890;28;20852;-79
2021/07/26 00:59:50;;;;;;;13.77;12.48;;;18.00;99.90;;;;;;4966446;28;20953;-80
2021/07/26 01:02:17;;;;;;;13.20;11.90;;;17.90;99.90;;;;;;4965656;28;20197;-85
2021/07/26 01:04:44;;;;;;;15.63;14.13;;;17.90;99.90;;;;;;4965655;28;20232;-80
2021/07/26 01:07:11;;;;;;;13.90;12.50;;;17.90;99.90;;;;;;4966047;28;20201;-80
2021/07/26 01:09:37;;;;;;;14.57;13.27;;;17.90;99.90;;;;;;4966527;28;20197;-78
2021/07/26 01:12:07;;;;;;;15.93;14.23;;;17.90;99.90;;;;;;4968037;28;20277;-79
2021/07/26 01:14:34;;;;;;;14.23;12.85;;;17.90;99.90;;;;;;4965686;28;20554;-80
2021/07/26 01:17:01;;;;;;;11.70;10.60;;;17.80;99.90;;;;;;4969096;28;20196;-80
2021/07/26 01:19:28;;;;;;;15.98;14.52;;;17.80;99.90;;;;;;4968299;28;20201;-82
2021/07/26 01:21:57;;;;;;;12.63;11.40;;;17.80;99.90;;;;;;4966799;28;20248;-81
2021/07/26 01:24:24;;;;;;;13.38;12.15;;;17.80;99.90;;;;;;4966906;28;20201;-83
2021/07/26 01:26:51;;;;;;;11.50;10.32;;;17.70;99.90;;;;;;4968228;28;20544;-82
2021/07/26 01:29:18;;;;;;;12.90;11.68;;;17.70;99.90;;;;;;4968232;28;20304;-82
2021/07/26 01:31:45;;;;;;;12.52;11.23;;;17.70;99.90;;;;;;4967860;28;20643;-79
2021/07/26 01:34:12;;;;;;;11.45;10.30;;;17.70;99.90;;;;;;4974408;28;20789;-79
2021/07/26 01:36:40;;;;;;;11.02;10.02;;;17.70;99.90;;;;;;4984608;28;20886;-80
2021/07/26 01:39:08;;;;;;;12.07;10.88;;;17.60;99.90;;;;;;4985693;28;20240;-76
2021/07/26 01:41:45;;;;;;;11.73;10.57;;;17.60;99.90;;;;;;4985515;28;20441;-80
2021/07/26 01:44:13;;;;;;;10.63;9.68;;;17.60;99.90;;;;;;4985452;28;20211;-82
2021/07/26 01:46:52;;;;;;;10.52;9.55;;;17.60;99.90;;;;;;4985103;28;20226;-78
2021/07/26 01:49:32;;;;;;;11.43;10.38;;;17.60;99.90;;;;;;4986837;28;20208;-79
2021/07/26 01:51:59;;;;;;;10.68;9.68;;;17.60;99.90;;;;;;4971133;28;20215;-79
2021/07/26 01:54:27;;;;;;;9.90;8.90;;;17.50;99.90;;;;;;4966794;28;20232;-83
2021/07/26 01:56:55;;;;;;;9.98;9.07;;;17.50;99.90;;;;;;4972786;28;20208;-83
2021/07/26 01:59:22;;;;;;;9.90;9.00;;;17.50;99.90;;;;;;4987190;28;20488;-78
2021/07/26 02:01:49;;;;;;;10.48;9.50;;;17.50;99.90;;;;;;4986850;28;20215;-80
2021/07/26 02:04:16;;;;;;;8.85;8.05;;;17.40;99.90;;;;;;4968883;28;20248;-82
2021/07/26 02:06:43;;;;;;;9.80;8.85;;;17.40;99.90;;;;;;4967305;28;20609;-83
2021/07/26 02:09:10;;;;;;;11.82;10.63;;;17.40;99.90;;;;;;4968254;28;20208;-84
2021/07/26 02:11:38;;;;;;;11.27;10.18;;;17.40;99.90;;;;;;4978146;28;20485;-82
2021/07/26 02:14:09;;;;;;;9.75;8.90;;;17.40;99.90;;;;;;4987110;28;20613;-78
2021/07/26 02:16:36;;;;;;;8.90;8.00;;;17.40;99.90;;;;;;4986541;28;20207;-83
2021/07/26 02:19:03;;;;;;;9.70;8.75;;;17.40;99.90;;;;;;4986251;28;20199;-82
2021/07/26 02:21:29;;;;;;;10.82;9.73;;;17.40;99.90;;;;;;4975415;28;20212;-76
2021/07/26 02:23:56;;;;;;;9.30;8.50;;;17.40;99.90;;;;;;4967418;28;20520;-80
2021/07/26 02:26:23;;;;;;;8.65;7.95;;;17.40;99.90;;;;;;4967314;28;20200;-81
2021/07/26 02:28:53;;;;;;;8.65;7.95;;;17.30;99.90;;;;;;4965685;28;21009;-78
2021/07/26 02:31:20;;;;;;;10.05;8.20;;;17.30;99.90;;;;;;4965412;28;20580;-81
2021/07/26 02:33:47;;;;;;;9.30;8.45;;;17.30;99.90;;;;;;4985074;28;20218;-78
2021/07/26 02:36:13;;;;;;;9.63;8.68;;;17.30;99.90;;;;;;4972445;28;20239;-84
2021/07/26 02:38:40;;;;;;;8.77;7.65;;;17.30;99.90;;;;;;4970128;28;20201;-84
2021/07/26 02:41:11;;;;;;;7.80;7.10;;;17.20;99.90;;;;;;4970697;28;20204;-80
2021/07/26 02:43:38;;;;;;;7.40;6.70;;;17.20;99.90;;;;;;4969121;28;20632;-78
2021/07/26 02:46:06;;;;;;;8.70;7.90;;;17.20;99.90;;;;;;4969357;28;20204;-85
2021/07/26 02:48:33;;;;;;;7.22;6.63;;;17.10;99.90;;;;;;4969702;28;20225;-81
2021/07/26 02:51:00;;;;;;;7.60;7.00;;;17.10;99.90;;;;;;4968497;28;20216;-85
2021/07/26 02:53:27;;;;;;;9.20;8.40;;;17.10;99.90;;;;;;4968613;28;20212;-79
2021/07/26 02:55:54;;;;;;;9.57;8.68;;;17.10;99.90;;;;;;4968718;28;20228;-85
2021/07/26 02:58:21;;;;;;;9.00;8.20;;;17.00;99.90;;;;;;4966462;28;20208;-78
2021/07/26 03:00:48;;;;;;;9.70;8.80;;;17.00;99.90;;;;;;4965063;28;20197;-83
2021/07/26 03:03:17;;;;;;;9.30;8.32;;;17.00;99.90;;;;;;4968135;28;20565;-78
2021/07/26 03:05:43;;;;;;;9.00;8.20;;;17.00;99.90;;;;;;4969049;28;20487;-79
2021/07/26 03:08:11;;;;;;;10.05;9.15;;;16.90;99.90;;;;;;4984906;28;20212;-85
2021/07/26 03:10:37;;;;;;;10.75;9.73;;;16.90;99.90;;;;;;4988606;28;20601;-82
2021/07/26 03:13:04;;;;;;;8.80;8.00;;;17.00;99.90;;;;;;4987709;28;20203;-83
2021/07/26 03:15:31;;;;;;;9.85;8.98;;;17.00;99.90;;;;;;4987855;28;20239;-83
2021/07/26 03:17:58;;;;;;;10.52;9.60;;;17.00;99.90;;;;;;4989261;28;20612;-81
2021/07/26 03:20:26;;;;;;;11.05;9.95;;;17.00;99.90;;;;;;4989358;28;20196;-82
2021/07/26 03:23:00;;;;;;;11.70;10.70;;;17.10;99.90;;;;;;4978721;28;20204;-79
2021/07/26 03:25:28;;;;;;;9.35;8.55;;;17.10;99.90;;;;;;4972549;28;20304;-82
2021/07/26 03:27:55;;;;;;;10.93;9.85;;;17.10;99.90;;;;;;4973395;28;20541;-85
2021/07/26 03:30:22;;;;;;;9.98;8.95;;;17.20;99.90;;;;;;4972863;28;20594;-87
2021/07/26 03:32:49;;;;;;;11.40;10.32;;;17.20;99.90;;;;;;4972374;28;20216;-86
2021/07/26 03:35:17;;;;;;;9.93;9.02;;;17.20;99.90;;;;;;4972530;28;20518;-87
2021/07/26 03:37:46;;;;;;;9.98;9.05;;;17.20;99.90;;;;;;4972165;28;20201;-85
2021/07/26 03:40:14;;;;;;;10.80;9.90;;;17.20;99.90;;;;;;4972118;28;20216;-83
2021/07/26 03:42:42;;;;;;;10.50;9.50;;;17.20;99.90;;;;;;4971655;28;20204;-85
2021/07/26 03:45:11;;;;;;;9.20;8.40;;;17.20;99.90;;;;;;4972119;28;20208;-87
2021/07/26 03:47:40;;;;;;;11.90;10.82;;;17.20;99.90;;;;;;4971771;28;20224;-86
2021/07/26 03:50:08;;;;;;;12.98;11.77;;;17.30;99.90;;;;;;4971980;28;20212;-84
2021/07/26 03:52:43;;;;;;;10.23;9.32;;;17.20;99.90;;;;;;4971608;28;20208;-86
2021/07/26 03:55:14;;;;;;;9.30;8.43;;;17.20;99.90;;;;;;4970982;28;20271;-84
2021/07/26 03:57:41;;;;;;;9.77;8.90;;;17.30;99.90;;;;;;4971037;28;20205;-88
2021/07/26 04:00:08;;;;;;;11.10;10.10;;;17.30;99.90;;;;;;4971366;28;21038;-86
2021/07/26 04:02:36;;;;;;;11.68;10.68;;;17.30;99.90;;;;;;4969908;28;20258;-80
2021/07/26 04:05:04;;;;;;;10.90;9.90;;;17.30;99.90;;;;;;4969128;28;20653;-85
2021/07/26 04:07:34;;;;;;;9.00;8.20;;;17.30;99.90;;;;;;4969443;28;20545;-82
2021/07/26 04:10:05;;;;;;;9.23;8.43;;;17.40;99.90;;;;;;4981011;28;20223;-79
2021/07/26 04:12:34;;;;;;;10.38;9.45;;;17.30;99.90;;;;;;4966547;28;20582;-81
2021/07/26 04:15:08;;;;;;;11.00;10.00;;;17.40;99.90;;;;;;4967253;28;20220;-85
2021/07/26 04:17:35;;;;;;;10.30;9.40;;;17.40;99.90;;;;;;4967087;28;20295;-80
2021/07/26 04:20:02;;;;;;;9.32;8.52;;;17.40;99.90;;;;;;4968883;28;20631;-82
2021/07/26 04:22:28;;;;;;;9.30;8.50;;;17.40;99.90;;;;;;4969808;28;20208;-87
2021/07/26 04:24:55;;;;;;;11.50;10.38;;;17.40;99.90;;;;;;4968075;28;20200;-83
2021/07/26 04:27:22;;;;;;;13.07;11.80;;;17.50;99.90;;;;;;4967716;28;20211;-83
2021/07/26 04:29:50;;;;;;;10.75;9.85;;;17.50;99.90;;;;;;4967346;28;20209;-80
2021/07/26 04:32:17;;;;;;;10.52;9.57;;;17.50;99.90;;;;;;4968718;28;20315;-81
2021/07/26 04:34:43;;;;;;;10.82;9.80;;;17.50;99.90;;;;;;4967786;28;20216;-81
2021/07/26 04:37:10;;;;;;;11.38;10.27;;;17.60;99.90;;;;;;4968889;28;20208;-81
2021/07/26 04:39:37;;;;;;;11.50;10.40;;;17.60;99.90;;;;;;4967070;28;20213;-86
2021/07/26 04:42:04;;;;;;;11.38;10.20;;;17.70;99.90;;;;;;4968584;28;20216;-81
2021/07/26 04:44:31;;;;;;;9.98;9.15;;;17.70;99.90;;;;;;4966787;28;20196;-82
2021/07/26 04:46:59;;;;;;;9.85;8.85;;;17.70;99.90;;;;;;4968275;28;20211;-81
2021/07/26 04:49:26;;;;;;;11.93;10.73;;;17.80;99.90;;;;;;4969547;28;20209;-85
2021/07/26 04:51:53;;;;;;;10.02;9.20;;;17.80;99.90;;;;;;4969749;28;20664;-81
2021/07/26 04:54:19;;;;;;;11.52;10.43;;;17.80;99.90;;;;;;4967805;28;20209;-86
2021/07/26 04:56:46;;;;;;;10.65;9.65;;;17.90;99.90;;;;;;4966402;28;20231;-83
2021/07/26 04:59:13;;;;;;;13.82;12.43;;;17.90;99.90;;;;;;4967854;28;20205;-81
2021/07/26 05:01:39;;;;;;;14.35;12.90;;;17.90;99.90;;;;;;4968266;28;20208;-87
2021/07/26 05:04:08;;;;;;;12.73;11.52;;;18.00;99.90;;;;;;4970333;28;20250;-88
2021/07/26 05:06:34;;;;;;;12.50;11.32;;;18.00;99.90;;;;;;4971590;28;20215;-86
2021/07/26 05:09:01;;;;;;;10.75;9.85;;;18.10;99.90;;;;;;4972392;28;20224;-81
2021/07/26 05:11:28;;;;;;;11.90;10.63;;;18.10;99.90;;;;;;4972248;28;20213;-81
2021/07/26 05:13:55;;;;;;;10.40;9.48;;;18.10;99.90;;;;;;4971439;28;20204;-87
2021/07/26 05:16:21;;;;;;;11.27;10.25;;;18.20;99.90;;;;;;4970940;28;20228;-88
2021/07/26 05:18:52;;;;;;;10.75;9.75;;;18.30;99.90;;;;;;4971043;28;20215;-87
2021/07/26 05:21:20;;;;;;;12.98;11.68;;;18.30;99.90;;;;;;4970617;28;20293;-86
2021/07/26 05:23:47;;;;;;;14.65;13.27;;;18.40;99.90;;;;;;4969531;28;20228;-86
2021/07/26 05:26:13;;;;;;;14.77;13.38;;;18.50;99.90;;;;;;4970623;28;20204;-85
2021/07/26 05:28:40;;;;;;;12.75;11.55;;;18.50;99.90;;;;;;4969709;28;20336;-88
2021/07/26 05:31:07;;;;;;;16.60;14.98;;;18.60;99.90;;;;;;4969752;28;20708;-84
2021/07/26 05:33:34;;;;;;;13.27;11.98;;;18.70;99.90;;;;;;4976020;28;20209;-80
2021/07/26 05:36:00;;;;;;;16.08;14.48;;;18.80;99.90;;;;;;4973317;28;20255;-82
2021/07/26 05:38:28;;;;;;;13.85;12.45;;;18.90;99.90;;;;;;4970940;28;20212;-87
2021/07/26 05:40:57;;;;;;;18.02;16.17;;;19.10;99.90;;;;;;4970886;28;20201;-86
2021/07/26 05:43:23;;;;;;;19.30;16.63;;;19.30;99.90;;;;;;4981809;28;20243;-87
2021/07/26 05:45:50;;;;;;;17.45;15.73;;;19.50;99.90;;;;;;4990131;28;20910;-81
2021/07/26 05:48:17;;;;;;;19.38;16.08;;;19.80;99.90;;;;;;4982274;28;20311;-82
2021/07/26 05:50:44;;;;;;;16.95;15.20;;;19.90;99.90;;;;;;4969442;28;20215;-84
2021/07/26 05:53:10;;;;;;;17.05;15.38;;;20.00;99.90;;;;;;4970541;28;20210;-85
2021/07/26 05:55:40;;;;;;;15.23;13.88;;;19.90;99.90;;;;;;4967340;28;20216;-79
2021/07/26 05:58:06;;;;;;;17.48;15.68;;;19.90;99.90;;;;;;4982877;28;20215;-80
2021/07/26 06:00:40;;;;;;;16.38;14.70;;;19.80;99.90;;;;;;4986365;28;20647;-82
2021/07/26 06:03:07;;;;;;;12.77;11.57;;;19.70;99.90;;;;;;4987996;28;20230;-83
2021/07/26 06:05:34;;;;;;;14.60;13.13;;;19.80;99.90;;;;;;4986307;28;20235;-82
2021/07/26 06:08:01;;;;;;;15.07;13.57;;;19.90;99.90;;;;;;4971498;28;20216;-80
2021/07/26 06:10:28;;;;;;;14.13;12.82;;;20.30;99.90;;;;;;4965303;28;20680;-84
2021/07/26 06:12:56;;;;;;;15.68;14.18;;;20.70;99.90;;;;;;4966605;28;20212;-81
2021/07/26 06:15:23;;;;;;;16.02;14.55;;;21.10;99.90;;;;;;4966019;28;20208;-80
2021/07/26 06:17:50;;;;;;;13.63;12.27;;;21.40;99.90;;;;;;4964933;28;20201;-79
2021/07/26 06:20:17;;;;;;;14.23;12.25;;;21.60;99.90;;;;;;4966019;28;20212;-78
2021/07/26 06:22:44;;;;;;;9.98;9.00;;;21.80;99.90;;;;;;4964585;28;20209;-77
2021/07/26 06:25:12;;;;;;;9.90;9.02;;;21.80;99.90;;;;;;4965619;28;20620;-78
2021/07/26 06:27:40;;;;;;;9.10;8.05;;;21.90;99.90;;;;;;4965529;28;20201;-77
2021/07/26 06:30:09;;;;;;;9.50;8.60;;;21.90;99.90;;;;;;4964769;28;20208;-78
2021/07/26 06:32:36;;;;;;;12.55;9.85;;;21.90;99.90;;;;;;4964602;28;20201;-84
2021/07/26 06:35:05;;;;;;;12.52;10.77;;;21.90;99.90;;;;;;4965020;28;20213;-79
2021/07/26 06:37:32;;;;;;;10.13;9.25;;;22.00;99.90;;;;;;4963253;28;20240;-78
2021/07/26 06:39:58;;;;;;;9.93;9.02;;;22.20;99.90;;;;;;4964271;28;20637;-78
2021/07/26 06:42:25;;;;;;;11.40;10.32;;;22.40;99.90;;;;;;4964785;28;20215;-79
2021/07/26 06:44:52;;;;;;;12.85;10.73;;;22.60;99.90;;;;;;4963453;28;20193;-77
2021/07/26 06:47:20;;;;;;;12.75;11.48;;;22.80;99.90;;;;;;4965743;28;20207;-84
2021/07/26 06:49:47;;;;;;;15.05;9.45;;;23.00;99.90;;;;;;4969193;28;20223;-78
2021/07/26 06:52:14;;;;;;;10.75;9.65;;;23.30;99.90;;;;;;4971050;28;20208;-80
2021/07/26 06:54:40;;;;;;;11.85;10.70;;;23.70;99.90;;;;;;4976402;28;20196;-78
2021/07/26 06:57:07;;;;;;;10.43;9.35;;;23.90;99.90;;;;;;4973309;28;20239;-84
2021/07/26 06:59:34;;;;;;;11.95;10.57;;;24.40;99.90;;;;;;4976628;28;20212;-80
2021/07/26 07:02:01;;;;;;;9.80;8.82;;;24.70;99.90;;;;;;4974563;28;20484;-79
2021/07/26 07:04:29;;;;;;;11.52;10.48;;;25.00;99.90;;;;;;4969343;28;20535;-80
2021/07/26 07:06:55;;;;;;;10.07;9.07;;;25.30;99.90;;;;;;4967788;28;20208;-78
2021/07/26 07:09:22;;;;;;;13.95;10.30;;;25.50;99.90;;;;;;4986007;28;20287;-82
2021/07/26 07:11:49;;;;;;;8.40;7.53;;;25.30;99.90;;;;;;4990079;28;20216;-85
2021/07/26 07:14:16;;;;;;;9.30;8.40;;;25.30;99.90;;;;;;4982032;28;20205;-86
2021/07/26 07:20:07;;;;;;;9.20;8.40;;;25.30;99.90;;;;;;4895475;28;20215;-76
2021/07/26 07:22:34;;;;;;;10.23;9.18;;;25.60;99.90;;;;;;4968911;28;20208;-80
2021/07/26 07:25:02;;;;;;;9.38;8.50;;;25.50;99.90;;;;;;4969417;28;20232;-79
2021/07/26 07:27:29;;;;;;;11.93;9.93;;;25.50;99.90;;;;;;4968284;28;20201;-78
2021/07/26 07:29:55;;;;;;;11.80;10.60;;;25.30;99.90;;;;;;4972004;28;20213;-77
2021/07/26 07:32:22;;;;;;;9.32;8.43;;;25.10;99.90;;;;;;4973138;28;20799;-78
2021/07/26 07:34:49;;;;;;;11.52;8.93;;;25.40;99.90;;;;;;4973351;28;20201;-81
2021/07/26 07:37:17;;;;;;;10.65;9.55;;;26.10;99.90;;;;;;4963300;28;20224;-86
2021/07/26 07:39:44;;;;;;;12.85;10.02;;;26.70;99.90;;;;;;4993827;28;20200;-84
2021/07/26 07:42:11;;;;;;;11.02;8.82;;;27.10;99.90;;;;;;4994139;28;20204;-86
2021/07/26 07:44:38;;;;;;;10.18;8.45;;;27.10;99.90;;;;;;5006767;28;20215;-87
2021/07/26 07:47:05;;;;;;;11.38;10.27;;;27.20;99.90;;;;;;4995159;28;20528;-86
2021/07/26 07:49:32;;;;;;;12.77;11.00;;;26.80;99.90;;;;;;5000767;28;20235;-78
2021/07/26 07:51:59;;;;;;;10.07;9.07;;;26.30;99.90;;;;;;4997906;28;20198;-86
2021/07/26 07:54:27;;;;;;;11.25;10.15;;;26.40;99.90;;;;;;5001551;28;20204;-83
2021/07/26 07:56:54;;;;;;;9.68;8.88;;;26.10;99.90;;;;;;4985467;28;20240;-82
2021/07/26 07:59:21;;;;;;;13.23;11.93;;;26.20;99.90;;;;;;4977730;28;20213;-86
2021/07/26 08:01:48;;;;;;;11.02;10.07;;;26.10;99.90;;;;;;4972630;28;20208;-89
2021/07/26 08:04:15;;;;;;;10.70;8.60;;;26.20;99.90;;;;;;4972743;28;20243;-82
2021/07/26 08:06:43;;;;;;;11.68;10.50;;;26.80;99.90;;;;;;4972503;28;20208;-86
2021/07/26 08:09:10;;;;;;;12.30;11.00;;;27.20;99.90;;;;;;4987277;28;20222;-84
2021/07/26 08:11:39;;;;;;;12.32;11.13;;;27.40;99.90;;;;;;4979090;28;20220;-82
2021/07/26 08:14:06;;;;;;;12.50;11.27;;;27.60;99.90;;;;;;4968523;28;20207;-81
2021/07/26 08:16:33;;;;;;;13.10;11.90;;;27.50;99.90;;;;;;4982705;28;20231;-84
2021/07/26 08:19:00;;;;;;;14.80;13.35;;;27.20;99.90;;;;;;4973614;28;20272;-83
2021/07/26 08:21:28;;;;;;;15.40;14.00;;;26.70;99.90;;;;;;4980812;28;20210;-84
2021/07/26 08:23:55;;;;;;;22.33;14.90;;;26.40;99.90;;;;;;4991239;28;20216;-87
2021/07/26 08:26:22;;;;;;;11.63;10.52;;;25.90;99.90;;;;;;4988020;28;20209;-87
2021/07/26 08:28:50;;;;;;;12.63;11.35;;;25.70;99.90;;;;;;4971817;28;20203;-86
2021/07/26 08:31:17;;;;;;;15.18;13.77;;;25.80;99.90;;;;;;4969978;28;20215;-87
2021/07/26 08:33:43;;;;;;;12.70;11.50;;;25.70;99.90;;;;;;4969974;28;20216;-86
2021/07/26 08:36:11;;;;;;;18.77;17.02;;;25.80;99.90;;;;;;4989949;28;20299;-87
2021/07/26 08:38:38;;;;;;;15.05;13.75;;;25.90;99.90;;;;;;4989205;28;20211;-90
2021/07/26 08:41:05;;;;;;;13.13;12.02;;;25.80;99.90;;;;;;4991440;28;20204;-88
2021/07/26 08:43:31;;;;;;;13.45;12.15;;;26.20;99.90;;;;;;4989207;28;20212;-85
2021/07/26 08:46:00;;;;;;;10.35;9.50;;;26.30;99.90;;;;;;4991759;28;20605;-84
2021/07/26 08:48:35;;;;;;;12.15;11.02;;;26.30;99.90;;;;;;4989599;28;20255;-86
2021/07/26 08:51:04;;;;;;;12.73;11.52;;;26.20;99.90;;;;;;4970643;28;20211;-82
2021/07/26 08:53:34;;;;;;;14.52;12.85;;;26.00;99.90;;;;;;4970747;28;20208;-83
2021/07/26 08:56:01;;;;;;;13.32;12.13;;;26.00;99.90;;;;;;4968962;28;20240;-81
2021/07/26 08:58:27;;;;;;;10.20;9.30;;;25.90;99.90;;;;;;4986846;28;20238;-88
2021/07/26 09:00:55;;;;;;;10.40;9.40;;;26.10;99.90;;;;;;4987969;28;20204;-82
2021/07/26 09:03:24;;;;;;;10.43;9.52;;;26.40;99.90;;;;;;4987464;28;20456;-85
2021/07/26 09:05:50;;;;;;;9.85;8.93;;;26.70;99.90;;;;;;4986012;28;20924;-89
2021/07/26 09:08:18;;;;;;;9.55;8.65;;;26.70;99.90;;;;;;4987464;28;20628;-84
2021/07/26 09:10:45;;;;;;;11.45;10.40;;;26.70;99.90;;;;;;4980974;28;20204;-83
2021/07/26 09:13:12;;;;;;;9.40;8.60;;;27.00;99.90;;;;;;4968606;28;20251;-81
2021/07/26 09:15:42;;;;;;;8.73;7.97;;;27.50;99.90;;;;;;4966222;28;20354;-86
2021/07/26 09:18:10;;;;;;;10.73;9.73;;;27.90;99.90;;;;;;4966287;28;20234;-79
2021/07/26 09:20:40;;;;;;;10.27;9.38;;;28.40;99.90;;;;;;4964171;28;20208;-80
2021/07/26 09:23:13;;;;;;;9.55;8.45;;;28.60;99.90;;;;;;4965679;28;20208;-81
2021/07/26 09:25:42;;;;;;;7.57;6.97;;;28.60;99.90;;;;;;4964629;28;20223;-80
2021/07/26 09:28:10;;;;;;;8.30;7.60;;;28.70;99.90;;;;;;4965500;28;20205;-83
2021/07/26 09:30:43;;;;;;;7.03;6.35;;;28.90;99.90;;;;;;4983591;28;20226;-80
2021/07/26 09:33:21;;;;;;;7.97;7.18;;;29.10;99.90;;;;;;4979765;28;20216;-84
2021/07/26 09:36:09;;;;;;;7.50;6.80;;;29.00;99.90;;;;;;4967872;28;20621;-84
2021/07/26 09:38:37;;;;;;;6.82;6.22;;;28.90;99.90;;;;;;4966278;28;20350;-78
2021/07/26 09:41:05;;;;;;;17.42;15.60;;;28.70;99.90;;;;;;4965992;28;20560;-81
2021/07/26 09:43:32;;;;;;;14.10;12.77;;;28.40;99.90;;;;;;4983676;28;20270;-81
2021/07/26 09:45:59;;;;;;;10.57;9.30;;;28.20;99.90;;;;;;4985370;28;20200;-80
2021/07/26 09:48:27;;;;;;;15.98;14.10;;;27.90;99.90;;;;;;4985119;28;20266;-86
2021/07/26 09:50:56;;;;;;;12.50;11.40;;;27.80;99.90;;;;;;4986740;28;20235;-84
2021/07/26 09:53:25;;;;;;;14.38;13.00;;;27.40;99.90;;;;;;4988522;28;20204;-85
2021/07/26 09:55:54;;;;;;;14.82;13.50;;;27.20;99.90;;;;;;5006167;28;20221;-86
2021/07/26 09:58:36;;;;;;;13.55;12.35;;;26.90;99.90;;;;;;5005811;28;20234;-83
2021/07/26 10:01:04;;;;;;;13.73;12.27;;;26.70;99.90;;;;;;4966779;28;20552;-82
2021/07/26 10:03:31;;;;;;;14.35;12.93;;;26.30;99.90;;;;;;4965731;28;20231;-81
2021/07/26 10:05:59;;;;;;;15.63;14.13;;;26.30;99.90;;;;;;4968825;28;20212;-79
2021/07/26 10:08:28;;;;;;;12.20;10.75;;;26.30;99.90;;;;;;4966131;28;20689;-82
2021/07/26 10:10:55;;;;;;;17.02;15.30;;;26.40;99.90;;;;;;4980016;28;20460;-79
2021/07/26 10:13:22;;;;;;;15.75;14.25;;;26.60;99.90;;;;;;4981162;28;20212;-81
2021/07/26 10:15:50;;;;;;;17.77;16.08;;;26.50;99.90;;;;;;4984049;28;20212;-81
2021/07/26 10:18:17;;;;;;;18.95;17.25;;;26.10;99.90;;;;;;4984382;28;20301;-81
2021/07/26 10:20:49;;;;;;;23.83;21.63;;;25.90;99.90;;;;;;4986379;28;20210;-82
2021/07/26 10:23:20;;;;;;;20.20;18.40;;;25.60;99.90;;;;;;4967860;28;20219;-83
2021/07/26 10:26:02;;;;;;;20.13;18.20;;;25.10;99.90;;;;;;4970908;28;20203;-87
2021/07/26 10:28:32;;;;;;;23.60;20.60;;;24.80;99.90;;;;;;4973628;28;20212;-88
2021/07/26 10:30:59;;;;;;;27.08;24.15;;;24.40;99.90;;;;;;4972672;28;20208;-87
2021/07/26 10:33:26;;;;;;;27.05;24.35;;;24.20;99.90;;;;;;4971140;28;20511;-81
2021/07/26 10:35:54;;;;;;;27.48;24.65;;;24.10;99.90;;;;;;4968080;28;20256;-79
2021/07/26 10:38:57;;;;;;;23.95;21.15;;;24.30;99.90;;;;;;4967570;28;20691;-80
2021/07/26 10:42:02;;;;;;;25.23;22.63;;;24.50;99.90;;;;;;4968430;28;20287;-79
2021/07/26 10:44:45;;;;;;;22.90;19.33;;;24.40;99.90;;;;;;4949716;28;20215;-80
2021/07/26 10:47:19;;;;;;;21.17;16.38;;;24.40;99.90;;;;;;4968349;28;20212;-81
2021/07/26 10:50:13;;;;;;;22.92;20.17;;;24.40;99.90;;;;;;4972517;28;20208;-85
2021/07/26 10:52:50;;;;;;;23.67;20.02;;;24.40;99.90;;;;;;4961821;28;20208;-84
2021/07/26 10:55:53;;;;;;;24.50;19.90;;;24.30;99.90;;;;;;4972971;28;20211;-86
2021/07/26 10:59:02;;;;;;;23.52;20.83;;;24.20;99.90;;;;;;4971935;28;20247;-84
2021/07/26 11:01:37;;;;;;;21.80;19.40;;;24.00;99.90;;;;;;4971084;28;20205;-83
2021/07/26 11:04:04;;;;;;;24.17;21.63;;;23.90;99.90;;;;;;4970351;28;20240;-82
2021/07/26 11:07:00;;;;;;;26.00;23.45;;;23.90;99.90;;;;;;4968394;28;20205;-80
2021/07/26 11:09:43;;;;;;;22.90;20.15;;;24.00;99.90;;;;;;4969513;28;20215;-82
2021/07/26 11:12:11;;;;;;;20.80;18.75;;;24.10;99.90;;;;;;4970847;28;20209;-80
2021/07/26 11:14:37;;;;;;;21.25;19.25;;;24.10;99.90;;;;;;4968991;28;20212;-84
2021/07/26 11:17:08;;;;;;;26.25;20.98;;;24.20;99.90;;;;;;4969989;28;20197;-86
2021/07/26 11:19:58;;;;;;;20.50;18.33;;;24.30;99.90;;;;;;4967665;28;20209;-81
2021/07/26 11:22:58;;;;;;;16.13;14.43;;;24.30;99.90;;;;;;4969416;28;20212;-78
2021/07/26 11:25:26;;;;;;;18.70;16.60;;;24.20;99.90;;;;;;4924595;28;20915;-81
2021/07/26 11:27:55;;;;;;;17.13;14.70;;;24.20;99.90;;;;;;4967808;28;20216;-81
2021/07/26 11:30:25;;;;;;;22.25;19.85;;;24.20;99.90;;;;;;4971309;28;20219;-80
2021/07/26 11:32:54;;;;;;;20.67;18.60;;;24.10;99.90;;;;;;4987167;28;21154;-80
2021/07/26 11:35:30;;;;;;;22.67;18.25;;;24.20;99.90;;;;;;4973488;28;20212;-80
2021/07/26 11:38:05;;;;;;;16.77;15.07;;;24.60;99.90;;;;;;4967295;28;20235;-82
2021/07/26 11:40:32;;;;;;;22.52;18.65;;;25.00;99.90;;;;;;4968082;28;20902;-79
2021/07/26 11:42:59;;;;;;;17.83;16.00;;;24.80;99.90;;;;;;4967967;28;20216;-84
2021/07/26 11:45:26;;;;;;;20.52;18.52;;;24.80;99.90;;;;;;4969437;28;20209;-87
2021/07/26 11:47:59;;;;;;;22.77;20.52;;;24.80;99.90;;;;;;4968315;28;20204;-82
2021/07/26 11:50:36;;;;;;;23.98;21.45;;;24.80;99.90;;;;;;4967680;28;20209;-80
2021/07/26 11:53:03;;;;;;;28.55;23.13;;;24.80;99.90;;;;;;4967907;28;20188;-80
2021/07/26 11:55:31;;;;;;;24.88;21.98;;;24.70;99.90;;;;;;4966371;28;20220;-82
2021/07/26 11:57:58;;;;;;;28.50;25.45;;;24.70;99.90;;;;;;4967452;28;20256;-80
2021/07/26 12:00:27;;;;;;;21.83;19.63;;;24.70;99.90;;;;;;4968732;28;20347;-82
2021/07/26 12:02:57;;;;;;;22.85;20.50;;;24.60;99.90;;;;;;4968962;28;20239;-84
2021/07/26 12:05:30;;;;;;;25.10;22.70;;;24.50;99.90;;;;;;4971734;28;20236;-84
2021/07/26 12:07:58;;;;;;;24.48;22.02;;;24.40;99.90;;;;;;4973967;28;20344;-84
2021/07/26 12:10:32;;;;;;;22.50;20.38;;;24.20;99.90;;;;;;4971620;28;20255;-85
2021/07/26 12:13:08;;;;;;;24.65;22.33;;;24.10;99.90;;;;;;4971075;28;20747;-79
2021/07/26 12:15:35;;;;;;;24.05;21.65;;;24.00;99.90;;;;;;4967892;28;20509;-77
2021/07/26 12:18:06;;;;;;;20.38;18.48;;;23.80;99.90;;;;;;4968356;28;20236;-84
2021/07/26 12:20:34;;;;;;;23.60;21.25;;;23.70;99.90;;;;;;4969205;28;20216;-79
2021/07/26 12:23:11;;;;;;;37.80;23.00;;;23.50;99.90;;;;;;4967808;28;20459;-85
2021/07/26 12:25:43;;;;;;;35.63;24.90;;;23.40;99.90;;;;;;4968336;28;20260;-80
2021/07/26 12:28:10;;;;;;;32.45;23.55;;;23.30;99.90;;;;;;4977832;28;20654;-82
2021/07/26 12:30:38;;;;;;;25.10;20.50;;;23.10;99.90;;;;;;4989183;28;20294;-86
2021/07/26 12:33:07;;;;;;;22.05;19.35;;;22.90;99.90;;;;;;4988231;28;20205;-88
2021/07/26 12:35:34;;;;;;;16.83;15.07;;;22.70;99.90;;;;;;4973121;28;20512;-89
2021/07/26 12:38:02;;;;;;;18.95;15.38;;;22.70;99.90;;;;;;4974376;28;20531;-85
2021/07/26 12:40:33;;;;;;;16.73;13.15;;;22.70;99.90;;;;;;4974226;28;20585;-89
2021/07/26 12:43:14;;;;;;;15.82;12.73;;;23.00;99.90;;;;;;5005126;28;20592;-86
2021/07/26 12:45:42;;;;;;;12.57;10.63;;;23.20;99.90;;;;;;4989235;28;20211;-91